createdAt,value
2022-12-01T00:01:24.973Z,19.76
2022-12-01T00:03:52.514Z,19.75
2022-12-01T00:06:19.729Z,19.76
2022-12-01T00:08:48.550Z,19.78
2022-12-01T00:11:14.828Z,19.76
2022-12-01T00:13:41.136Z,19.76
2022-12-01T00:16:10.934Z,19.76
2022-12-01T00:18:37.324Z,19.75
2022-12-01T00:21:05.144Z,19.75
2022-12-01T00:23:31.447Z,19.75
2022-12-01T00:26:01.955Z,19.75
2022-12-01T00:28:28.406Z,19.74
2022-12-01T00:30:54.712Z,19.75
2022-12-01T00:33:21.031Z,19.75
2022-12-01T00:35:47.396Z,19.75
2022-12-01T00:38:15.138Z,19.74
2022-12-01T00:40:42.069Z,19.75
2022-12-01T00:43:08.369Z,19.78
2022-12-01T00:45:34.713Z,19.76
2022-12-01T00:48:01.077Z,19.74
2022-12-01T00:50:27.447Z,19.74
2022-12-01T00:52:53.736Z,19.74
2022-12-01T00:55:21.351Z,19.76
2022-12-01T00:57:47.626Z,19.75
2022-12-01T01:00:14.559Z,19.76
2022-12-01T01:02:40.994Z,19.76
2022-12-01T01:05:07.700Z,19.76
2022-12-01T01:07:34.137Z,19.76
2022-12-01T01:10:00.557Z,19.76
2022-12-01T01:12:28.302Z,19.77
2022-12-01T01:14:54.594Z,19.78
2022-12-01T01:17:20.930Z,19.77
2022-12-01T01:19:47.621Z,19.78
2022-12-01T01:22:14.164Z,19.78
2022-12-01T01:24:40.456Z,19.77
2022-12-01T01:27:06.769Z,19.78
2022-12-01T01:29:34.453Z,19.78
2022-12-01T01:32:00.904Z,19.77
2022-12-01T01:34:27.178Z,19.77
2022-12-01T01:36:53.487Z,19.77
2022-12-01T01:39:19.884Z,19.78
2022-12-01T01:41:46.206Z,19.77
2022-12-01T01:44:27.369Z,19.80
2022-12-01T01:46:55.284Z,19.87
2022-12-01T01:49:21.556Z,19.91
2022-12-01T01:51:49.208Z,20.02
2022-12-01T01:54:19.096Z,20.09
2022-12-01T01:56:46.328Z,20.16
2022-12-01T01:59:13.481Z,20.24
2022-12-01T02:01:39.907Z,20.27
2022-12-01T02:04:07.670Z,20.34
2022-12-01T02:06:34.008Z,20.39
2022-12-01T02:09:00.336Z,20.41
2022-12-01T02:11:39.227Z,20.44
2022-12-01T02:14:08.740Z,20.48
2022-12-01T02:16:38.919Z,20.53
2022-12-01T02:19:13.903Z,20.57
2022-12-01T02:21:50.946Z,20.63
2022-12-01T02:27:19.669Z,20.68
2022-12-01T02:29:59.940Z,20.72
2022-12-01T02:32:30.908Z,20.75
2022-12-01T02:34:59.277Z,20.78
2022-12-01T02:37:30.991Z,20.79
2022-12-01T02:40:01.200Z,20.85
2022-12-01T02:42:32.354Z,20.90
2022-12-01T02:45:01.233Z,20.92
2022-12-01T02:47:29.125Z,20.94
2022-12-01T02:49:57.323Z,20.96
2022-12-01T02:52:24.115Z,20.98
2022-12-01T02:54:51.126Z,21.01
2022-12-01T02:57:17.600Z,21.04
2022-12-01T02:59:46.514Z,21.06
2022-12-01T03:02:18.731Z,21.08
2022-12-01T03:04:50.981Z,21.11
2022-12-01T03:07:26.287Z,21.13
2022-12-01T03:10:00.295Z,21.15
2022-12-01T03:12:29.739Z,21.18
2022-12-01T03:15:01.890Z,21.21
2022-12-01T03:17:30.490Z,21.21
2022-12-01T03:20:02.738Z,21.24
2022-12-01T03:22:33.347Z,21.25
2022-12-01T03:25:00.188Z,21.30
2022-12-01T03:27:28.407Z,21.32
2022-12-01T03:29:56.432Z,21.31
2022-12-01T03:32:25.635Z,21.31
2022-12-01T03:34:54.674Z,21.34
2022-12-01T03:37:24.711Z,21.33
2022-12-01T03:39:58.761Z,21.34
2022-12-01T03:42:28.720Z,21.36
2022-12-01T03:44:56.587Z,21.37
2022-12-01T03:47:24.706Z,21.37
2022-12-01T03:49:52.914Z,21.40
2022-12-01T03:52:24.532Z,21.43
2022-12-01T03:55:00.094Z,21.44
2022-12-01T03:57:29.672Z,21.46
2022-12-01T03:59:56.382Z,21.47
2022-12-01T04:02:22.745Z,21.45
2022-12-01T04:04:49.026Z,21.52
2022-12-01T04:07:15.331Z,21.49
2022-12-01T04:09:41.646Z,21.51
2022-12-01T04:12:11.723Z,21.54
2022-12-01T04:14:38.065Z,21.54
2022-12-01T04:17:04.382Z,21.54
2022-12-01T04:19:30.681Z,21.55
2022-12-01T04:21:56.984Z,21.54
2022-12-01T04:24:23.328Z,21.57
2022-12-01T04:26:49.634Z,21.57
2022-12-01T04:29:17.297Z,21.57
2022-12-01T04:31:43.804Z,21.60
2022-12-01T04:34:10.624Z,21.59
2022-12-01T04:36:36.920Z,21.58
2022-12-01T04:39:03.746Z,21.59
2022-12-01T04:41:30.005Z,21.59
2022-12-01T04:43:56.506Z,21.58
2022-12-01T04:46:24.635Z,21.61
2022-12-01T04:48:51.328Z,21.63
2022-12-01T04:51:17.661Z,21.64
2022-12-01T04:53:44.278Z,21.70
2022-12-01T04:56:10.577Z,21.64
2022-12-01T04:58:37.076Z,21.65
2022-12-01T05:01:04.299Z,21.68
2022-12-01T05:03:32.068Z,21.69
2022-12-01T05:06:01.065Z,21.71
2022-12-01T05:08:27.344Z,21.67
2022-12-01T05:10:54.709Z,21.66
2022-12-01T05:13:21.006Z,21.68
2022-12-01T05:15:47.711Z,21.67
2022-12-01T05:18:14.147Z,21.68
2022-12-01T05:20:41.741Z,21.70
2022-12-01T05:23:10.785Z,21.67
2022-12-01T05:25:39.923Z,21.70
2022-12-01T05:28:06.220Z,21.68
2022-12-01T05:30:32.579Z,21.71
2022-12-01T05:32:58.909Z,21.68
2022-12-01T05:35:25.332Z,21.71
2022-12-01T05:37:52.869Z,21.75
2022-12-01T05:40:19.209Z,21.74
2022-12-01T05:42:45.503Z,21.44
2022-12-01T05:45:11.823Z,21.19
2022-12-01T05:47:38.358Z,21.09
2022-12-01T05:50:05.924Z,21.03
2022-12-01T05:52:33.376Z,20.98
2022-12-01T05:55:01.032Z,20.90
2022-12-01T05:57:27.344Z,20.89
2022-12-01T05:59:53.608Z,20.82
2022-12-01T06:02:19.885Z,20.77
2022-12-01T06:04:46.204Z,20.76
2022-12-01T06:07:12.625Z,20.69
2022-12-01T06:09:38.922Z,20.66
2022-12-01T06:12:06.629Z,20.61
2022-12-01T06:14:32.986Z,20.59
2022-12-01T06:16:59.365Z,20.48
2022-12-01T06:19:25.827Z,20.43
2022-12-01T06:21:52.112Z,20.48
2022-12-01T06:24:18.416Z,20.46
2022-12-01T06:26:44.878Z,20.41
2022-12-01T06:29:12.469Z,20.41
2022-12-01T06:31:38.882Z,20.67
2022-12-01T06:34:05.234Z,20.86
2022-12-01T06:36:31.579Z,20.95
2022-12-01T06:38:58.027Z,21.06
2022-12-01T06:41:24.324Z,21.07
2022-12-01T06:43:50.609Z,21.10
2022-12-01T06:46:18.674Z,21.13
2022-12-01T06:48:47.456Z,21.17
2022-12-01T06:51:13.892Z,21.19
2022-12-01T06:53:40.191Z,21.20
2022-12-01T06:56:06.759Z,21.23
2022-12-01T06:58:33.308Z,21.24
2022-12-01T07:01:00.265Z,21.29
2022-12-01T07:03:27.922Z,21.33
2022-12-01T07:05:55.133Z,21.32
2022-12-01T07:08:21.468Z,21.30
2022-12-01T07:10:56.434Z,21.31
2022-12-01T07:13:22.765Z,21.34
2022-12-01T07:15:49.067Z,21.32
2022-12-01T07:18:15.441Z,21.35
2022-12-01T07:20:43.058Z,21.38
2022-12-01T07:23:09.520Z,21.38
2022-12-01T07:25:35.785Z,21.39
2022-12-01T07:28:02.071Z,21.40
2022-12-01T07:30:28.777Z,21.42
2022-12-01T07:32:55.399Z,21.42
2022-12-01T07:35:22.369Z,21.43
2022-12-01T07:37:53.577Z,21.43
2022-12-01T07:40:19.938Z,21.50
2022-12-01T07:42:46.723Z,21.49
2022-12-01T07:45:13.096Z,21.49
2022-12-01T07:47:39.486Z,21.50
2022-12-01T07:50:06.266Z,21.52
2022-12-01T07:52:32.588Z,21.51
2022-12-01T07:55:00.490Z,21.53
2022-12-01T07:57:26.814Z,21.53
2022-12-01T07:59:53.151Z,21.55
2022-12-01T08:02:19.624Z,21.56
2022-12-01T08:04:46.105Z,21.56
2022-12-01T08:07:12.434Z,21.58
2022-12-01T08:09:38.760Z,21.60
2022-12-01T08:12:06.586Z,21.61
2022-12-01T08:14:32.977Z,21.63
2022-12-01T08:16:59.256Z,21.63
2022-12-01T08:19:25.573Z,21.65
2022-12-01T08:21:51.878Z,21.70
2022-12-01T08:24:18.201Z,21.71
2022-12-01T08:26:44.653Z,21.73
2022-12-01T08:29:17.026Z,21.77
2022-12-01T08:31:46.125Z,21.80
2022-12-01T08:34:12.461Z,21.83
2022-12-01T08:36:38.836Z,21.87
2022-12-01T08:39:06.967Z,21.88
2022-12-01T08:41:33.240Z,21.88
2022-12-01T08:44:00.377Z,21.91
2022-12-01T08:46:31.533Z,21.93
2022-12-01T08:48:58.304Z,21.96
2022-12-01T08:51:25.284Z,21.98
2022-12-01T08:53:51.639Z,22.02
2022-12-01T08:56:18.808Z,22.06
2022-12-01T08:58:45.347Z,22.06
2022-12-01T09:01:12.821Z,22.02
2022-12-01T09:03:40.909Z,21.74
2022-12-01T09:06:08.392Z,21.53
2022-12-01T09:08:35.353Z,21.38
2022-12-01T09:11:03.350Z,21.43
2022-12-01T09:13:30.153Z,21.41
2022-12-01T09:15:57.556Z,21.37
2022-12-01T09:18:24.438Z,21.34
2022-12-01T09:20:52.103Z,21.21
2022-12-01T09:23:18.786Z,21.13
2022-12-01T09:25:45.190Z,21.08
2022-12-01T09:28:11.572Z,21.05
2022-12-01T09:30:38.088Z,21.01
2022-12-01T09:33:04.424Z,20.93
2022-12-01T09:35:31.447Z,20.95
2022-12-01T09:37:59.218Z,21.05
2022-12-01T09:40:31.309Z,21.21
2022-12-01T09:42:58.348Z,21.40
2022-12-01T09:45:25.714Z,21.51
2022-12-01T09:47:59.341Z,21.60
2022-12-01T09:50:26.815Z,21.63
2022-12-01T09:52:56.915Z,21.66
2022-12-01T09:55:25.079Z,21.68
2022-12-01T09:57:52.754Z,21.70
2022-12-01T10:00:20.394Z,21.74
2022-12-01T10:02:49.518Z,21.75
2022-12-01T10:05:18.416Z,21.76
2022-12-01T10:07:48.077Z,21.79
2022-12-01T10:10:16.574Z,21.80
2022-12-01T10:12:46.581Z,21.81
2022-12-01T10:15:15.674Z,21.83
2022-12-01T10:17:46.265Z,21.85
2022-12-01T10:20:16.293Z,21.85
2022-12-01T10:22:48.973Z,21.84
2022-12-01T10:25:20.016Z,21.88
2022-12-01T10:27:51.967Z,21.90
2022-12-01T10:30:20.019Z,21.92
2022-12-01T10:32:51.296Z,21.94
2022-12-01T10:35:18.716Z,21.95
2022-12-01T10:37:45.829Z,21.95
2022-12-01T10:40:12.529Z,21.97
2022-12-01T10:42:41.040Z,21.97
2022-12-01T10:45:13.720Z,21.99
2022-12-01T10:48:00.014Z,22.02
2022-12-01T10:50:27.080Z,22.00
2022-12-01T10:52:53.441Z,22.01
2022-12-01T10:55:25.132Z,22.02
2022-12-01T10:57:52.676Z,22.03
2022-12-01T11:00:57.509Z,22.05
2022-12-01T11:03:21.574Z,22.06
2022-12-01T11:05:51.037Z,22.06
2022-12-01T11:08:21.674Z,22.08
2022-12-01T11:10:48.883Z,22.08
2022-12-01T11:13:20.639Z,22.11
2022-12-01T11:15:51.696Z,22.10
2022-12-01T11:18:21.130Z,22.11
2022-12-01T11:20:47.699Z,22.12
2022-12-01T11:23:23.030Z,22.14
2022-12-01T11:25:56.335Z,22.16
2022-12-01T11:28:22.794Z,22.16
2022-12-01T11:30:56.784Z,22.16
2022-12-01T11:33:26.867Z,22.18
2022-12-01T11:35:53.529Z,22.18
2022-12-01T11:38:29.653Z,22.18
2022-12-01T11:40:57.442Z,22.19
2022-12-01T11:43:27.241Z,22.18
2022-12-01T11:45:54.419Z,22.21
2022-12-01T11:48:25.392Z,22.26
2022-12-01T11:51:01.579Z,22.26
2022-12-01T11:53:28.902Z,22.18
2022-12-01T11:56:13.091Z,22.17
2022-12-01T11:58:39.598Z,22.14
2022-12-01T12:01:16.350Z,22.14
2022-12-01T12:03:53.398Z,22.14
2022-12-01T12:09:19.141Z,22.12
2022-12-01T12:11:49.862Z,22.12
2022-12-01T12:14:25.118Z,22.13
2022-12-01T12:17:10.030Z,22.11
2022-12-01T12:20:07.088Z,22.10
2022-12-01T12:22:38.548Z,22.08
2022-12-01T12:25:20.009Z,22.09
2022-12-01T12:27:50.678Z,22.08
2022-12-01T12:30:20.791Z,22.11
2022-12-01T12:32:57.277Z,22.09
2022-12-01T12:35:30.750Z,22.08
2022-12-01T12:38:03.553Z,22.10
2022-12-01T12:40:36.310Z,22.10
2022-12-01T12:43:08.175Z,22.09
2022-12-01T12:45:41.584Z,22.11
2022-12-01T12:48:14.787Z,22.10
2022-12-01T12:50:45.088Z,22.10
2022-12-01T12:53:15.602Z,22.11
2022-12-01T12:55:44.365Z,22.10
2022-12-01T12:58:13.560Z,22.10
2022-12-01T13:00:43.746Z,22.08
2022-12-01T13:03:15.960Z,22.09
2022-12-01T13:05:46.524Z,22.07
2022-12-01T13:08:16.022Z,22.08
2022-12-01T13:10:46.306Z,22.11
2022-12-01T13:13:24.514Z,22.12
2022-12-01T13:15:52.527Z,22.12
2022-12-01T13:18:28.902Z,22.10
2022-12-01T13:20:57.605Z,22.10
2022-12-01T13:23:24.445Z,22.08
2022-12-01T13:25:52.635Z,22.08
2022-12-01T13:28:20.788Z,22.07
2022-12-01T13:30:57.026Z,22.09
2022-12-01T13:33:23.331Z,22.10
2022-12-01T13:36:22.594Z,22.09
2022-12-01T13:38:45.347Z,22.08
2022-12-01T13:41:13.449Z,22.08
2022-12-01T13:43:49.202Z,22.07
2022-12-01T13:46:20.580Z,22.08
2022-12-01T13:48:50.933Z,22.10
2022-12-01T13:51:17.614Z,22.10
2022-12-01T13:53:55.916Z,22.13
2022-12-01T13:56:39.381Z,22.15
2022-12-01T13:59:22.073Z,22.18
2022-12-01T14:01:48.506Z,22.20
2022-12-01T14:04:22.468Z,22.23
2022-12-01T14:06:49.844Z,22.23
2022-12-01T14:09:20.651Z,22.25
2022-12-01T14:11:55.933Z,22.27
2022-12-01T14:14:26.239Z,22.15
2022-12-01T14:16:53.813Z,22.26
2022-12-01T14:19:27.947Z,22.24
2022-12-01T14:21:54.383Z,22.32
2022-12-01T14:24:26.531Z,22.33
2022-12-01T14:26:53.661Z,22.36
2022-12-01T14:29:24.820Z,22.38
2022-12-01T14:32:01.053Z,22.41
2022-12-01T14:34:29.928Z,22.46
2022-12-01T14:36:57.626Z,22.48
2022-12-01T14:39:27.100Z,22.48
2022-12-01T14:41:56.176Z,22.50
2022-12-01T14:44:25.443Z,22.39
2022-12-01T14:46:54.549Z,22.44
2022-12-01T14:49:23.537Z,22.49
2022-12-01T14:51:52.891Z,22.52
2022-12-01T14:54:23.466Z,22.53
2022-12-01T14:56:52.462Z,22.54
2022-12-01T14:59:20.351Z,22.56
2022-12-01T15:01:48.852Z,22.57
2022-12-01T15:04:15.411Z,22.60
2022-12-01T15:06:41.932Z,22.59
2022-12-01T15:09:32.656Z,22.63
2022-12-01T15:11:59.651Z,22.63
2022-12-01T15:14:31.061Z,22.65
2022-12-01T15:16:57.812Z,22.72
2022-12-01T15:19:33.506Z,22.66
2022-12-01T15:22:02.858Z,22.67
2022-12-01T15:24:29.268Z,22.67
2022-12-01T15:27:02.251Z,22.65
2022-12-01T15:29:33.027Z,22.66
2022-12-01T15:32:00.407Z,22.66
2022-12-01T15:34:29.469Z,22.66
2022-12-01T15:36:55.794Z,22.66
2022-12-01T15:39:26.023Z,22.68
2022-12-01T15:41:53.315Z,22.69
2022-12-01T15:44:21.768Z,22.70
2022-12-01T15:46:49.527Z,22.71
2022-12-01T15:49:18.212Z,22.71
2022-12-01T15:51:45.004Z,22.72
2022-12-01T15:54:17.492Z,22.70
2022-12-01T15:56:44.356Z,22.70
2022-12-01T15:59:19.495Z,22.72
2022-12-01T16:01:45.938Z,22.69
2022-12-01T16:04:18.573Z,22.68
2022-12-01T16:06:52.270Z,22.71
2022-12-01T16:09:20.873Z,22.71
2022-12-01T16:12:02.162Z,22.71
2022-12-01T16:14:28.676Z,22.71
2022-12-01T16:16:55.288Z,22.70
2022-12-01T16:19:25.614Z,22.70
2022-12-01T16:21:53.060Z,22.71
2022-12-01T16:24:20.821Z,22.71
2022-12-01T16:26:48.816Z,22.72
2022-12-01T16:29:18.366Z,22.71
2022-12-01T16:32:12.724Z,22.72
2022-12-01T16:34:45.971Z,22.73
2022-12-01T16:37:20.769Z,22.76
2022-12-01T16:39:47.550Z,22.75
2022-12-01T16:42:14.840Z,22.75
2022-12-01T16:44:41.440Z,22.75
2022-12-01T16:47:11.964Z,22.77
2022-12-01T16:49:39.693Z,22.76
2022-12-01T16:52:42.585Z,22.33
2022-12-01T16:54:52.610Z,22.09
2022-12-01T16:57:19.033Z,22.00
2022-12-01T16:59:45.434Z,21.96
2022-12-01T17:02:11.954Z,21.86
2022-12-01T17:04:39.941Z,21.59
2022-12-01T17:07:06.354Z,21.55
2022-12-01T17:09:32.773Z,21.64
2022-12-01T17:11:59.813Z,21.79
2022-12-01T17:14:26.260Z,22.05
2022-12-01T17:16:52.574Z,22.17
2022-12-01T17:19:19.121Z,22.24
2022-12-01T17:21:46.799Z,22.25
2022-12-01T17:24:18.720Z,22.23
2022-12-01T17:26:45.592Z,22.20
2022-12-01T17:29:12.010Z,22.21
2022-12-01T17:31:38.557Z,22.17
2022-12-01T17:34:05.054Z,22.13
2022-12-01T17:36:31.562Z,22.10
2022-12-01T17:38:59.244Z,22.02
2022-12-01T17:41:25.640Z,21.98
2022-12-01T17:43:52.042Z,21.95
2022-12-01T17:46:18.864Z,21.93
2022-12-01T17:48:46.381Z,21.88
2022-12-01T17:51:13.707Z,21.85
2022-12-01T17:53:40.305Z,21.79
2022-12-01T17:56:08.726Z,21.77
2022-12-01T17:58:35.227Z,21.75
2022-12-01T18:01:01.643Z,21.71
2022-12-01T18:03:27.971Z,21.68
2022-12-01T18:05:54.871Z,21.68
2022-12-01T18:08:21.407Z,21.66
2022-12-01T18:10:47.859Z,21.65
2022-12-01T18:13:15.403Z,21.63
2022-12-01T18:15:41.810Z,21.62
2022-12-01T18:18:08.314Z,21.60
2022-12-01T18:20:34.624Z,21.57
2022-12-01T18:23:00.926Z,21.55
2022-12-01T18:25:27.249Z,21.55
2022-12-01T18:27:53.568Z,21.51
2022-12-01T18:30:21.198Z,21.52
2022-12-01T18:32:47.631Z,21.51
2022-12-01T18:35:14.232Z,21.50
2022-12-01T18:37:40.604Z,21.48
2022-12-01T18:40:08.247Z,21.44
2022-12-01T18:42:34.681Z,21.44
2022-12-01T18:45:01.016Z,21.43
2022-12-01T18:47:29.290Z,21.42
2022-12-01T18:49:55.764Z,21.38
2022-12-01T18:52:22.047Z,21.36
2022-12-01T18:54:48.502Z,21.34
2022-12-01T18:57:15.089Z,21.35
2022-12-01T18:59:41.407Z,21.32
2022-12-01T19:02:09.374Z,21.30
2022-12-01T19:04:37.012Z,21.31
2022-12-01T19:07:03.280Z,21.29
2022-12-01T19:09:29.590Z,21.28
2022-12-01T19:11:56.028Z,21.26
2022-12-01T19:14:22.379Z,21.25
2022-12-01T19:16:48.716Z,21.25
2022-12-01T19:19:15.103Z,21.26
2022-12-01T19:21:42.959Z,21.26
2022-12-01T19:24:09.367Z,21.24
2022-12-01T19:26:35.755Z,21.23
2022-12-01T19:29:02.283Z,21.21
2022-12-01T19:31:28.693Z,21.20
2022-12-01T19:33:55.108Z,21.21
2022-12-01T19:36:22.996Z,21.18
2022-12-01T19:38:50.718Z,21.14
2022-12-01T19:41:17.607Z,21.12
2022-12-01T19:43:44.011Z,21.11
2022-12-01T19:46:11.592Z,21.12
2022-12-01T19:48:38.242Z,21.12
2022-12-01T19:51:04.883Z,21.10
2022-12-01T19:53:34.071Z,21.09
2022-12-01T19:56:02.566Z,21.08
2022-12-01T19:58:28.891Z,21.07
2022-12-01T20:00:55.323Z,21.06
2022-12-01T20:03:21.711Z,21.05
2022-12-01T20:05:48.004Z,21.06
2022-12-01T20:08:14.288Z,21.05
2022-12-01T20:10:45.514Z,21.04
2022-12-01T20:13:13.154Z,21.03
2022-12-01T20:15:39.575Z,21.03
2022-12-01T20:18:05.866Z,21.03
2022-12-01T20:20:32.212Z,21.01
2022-12-01T20:22:58.534Z,21.02
2022-12-01T20:25:24.977Z,21.01
2022-12-01T20:27:51.340Z,21.01
2022-12-01T20:30:19.080Z,21.00
2022-12-01T20:32:45.449Z,20.98
2022-12-01T20:35:11.878Z,20.98
2022-12-01T20:37:38.198Z,20.98
2022-12-01T20:40:04.898Z,20.97
2022-12-01T20:42:31.237Z,20.96
2022-12-01T20:44:58.045Z,20.96
2022-12-01T20:47:25.771Z,20.95
2022-12-01T20:49:56.951Z,20.96
2022-12-01T20:52:24.743Z,20.97
2022-12-01T20:54:51.346Z,20.94
2022-12-01T20:57:17.923Z,20.94
2022-12-01T20:59:44.225Z,20.94
2022-12-01T21:02:10.601Z,20.93
2022-12-01T21:04:38.213Z,20.92
2022-12-01T21:07:04.503Z,20.92
2022-12-01T21:09:30.958Z,20.91
2022-12-01T21:11:58.706Z,20.90
2022-12-01T21:14:27.736Z,20.90
2022-12-01T21:16:56.239Z,20.91
2022-12-01T21:19:26.127Z,20.90
2022-12-01T21:21:53.731Z,20.89
2022-12-01T21:24:21.032Z,20.89
2022-12-01T21:26:49.242Z,20.90
2022-12-01T21:29:18.726Z,20.88
2022-12-01T21:31:45.101Z,20.89
2022-12-01T21:34:13.825Z,20.88
2022-12-01T21:36:40.105Z,20.86
2022-12-01T21:39:12.547Z,20.87
2022-12-01T21:41:38.858Z,20.87
2022-12-01T21:44:11.215Z,20.87
2022-12-01T21:46:37.567Z,20.86
2022-12-01T21:49:08.791Z,20.87
2022-12-01T21:51:35.245Z,20.86
2022-12-01T21:54:01.546Z,20.84
2022-12-01T21:56:29.418Z,20.85
2022-12-01T21:58:57.486Z,20.86
2022-12-01T22:01:26.867Z,20.84
2022-12-01T22:03:59.084Z,20.87
2022-12-01T22:06:31.636Z,20.84
2022-12-01T22:08:59.597Z,20.84
2022-12-01T22:11:26.913Z,20.84
2022-12-01T22:13:55.149Z,20.84
2022-12-01T22:16:22.246Z,20.84
2022-12-01T22:18:50.595Z,20.85
2022-12-01T22:21:31.761Z,20.84
2022-12-01T22:24:01.730Z,20.83
2022-12-01T22:26:28.006Z,20.84
2022-12-01T22:28:58.284Z,20.83
2022-12-01T22:31:25.003Z,20.81
2022-12-01T22:33:57.657Z,20.81
2022-12-01T22:36:28.766Z,20.81
2022-12-01T22:38:55.665Z,20.81
2022-12-01T22:41:22.829Z,20.80
2022-12-01T22:43:50.391Z,20.81
2022-12-01T22:46:27.025Z,20.80
2022-12-01T22:48:54.474Z,20.79
2022-12-01T22:51:24.059Z,20.79
2022-12-01T22:53:53.109Z,20.78
2022-12-01T22:56:26.476Z,20.79
2022-12-01T22:58:53.047Z,20.79
2022-12-01T23:01:21.752Z,20.78
2022-12-01T23:03:49.500Z,20.78
2022-12-01T23:06:30.773Z,20.78
2022-12-01T23:08:57.114Z,20.78
2022-12-01T23:11:23.403Z,20.77
2022-12-01T23:13:49.727Z,20.77
2022-12-01T23:16:16.109Z,20.76
2022-12-01T23:18:42.478Z,20.76
2022-12-01T23:21:10.148Z,20.76
2022-12-01T23:23:37.136Z,20.74
2022-12-01T23:26:04.101Z,20.75
2022-12-01T23:28:30.846Z,20.75
2022-12-01T23:30:58.093Z,20.74
2022-12-01T23:33:25.849Z,20.73
2022-12-01T23:35:55.466Z,20.74
2022-12-01T23:38:24.451Z,20.74
2022-12-01T23:40:51.789Z,20.74
2022-12-01T23:43:19.522Z,20.73
2022-12-01T23:45:46.251Z,20.73
2022-12-01T23:48:17.082Z,20.72
2022-12-01T23:50:43.376Z,20.73
2022-12-01T23:53:18.446Z,20.72
2022-12-01T23:55:46.050Z,20.71
2022-12-01T23:58:13.436Z,20.72
